MD-88 Delty wypadł z pasa na lotnisku LaGuardia

Piotr Bożyk - Profil Piotr Bożyk
06 marca 2015 00:48
1 komentarz
Samolot McDonnell Douglas MD-88 linii Delta Air Lines wypadł z pasa podczas lądowania na lotnisku LaGuardia w Nowym Jorku. W wyniku zdarzenia 24 pasażerów odniosło drobne obrażenia.
Reklama

MD-88 o znakach rejestracyjnych N909DL wykonywał lot DL 1086 z Atlanty do Nowego Jorku (LGA). Lądowanie miało miejsce wczoraj (5.3) o godz. 11:01 czasu lokalnego (17:01 czasu polskiego) na drodze startowej o kierunku 13. Podczas lądowania samolot wpadł w poślizg, wypadł z pasa i zatrzymał się na nasypie przebijając ogrodzenie portu.

Uczestniczący w zdarzeniu samolot, to prawie 28-letnia maszyna. Została dostarczona do Delty 29 grudnia 1987 r. Na pokładzie znajdowało się 125 pasażerów i pięciu członków załogi.

//www.pasazer.com/img/images/normal/delta,laguardia,media.jpg
Pasażerowie opuścili samolot z wykorzystaniem wyjść ewakuacyjnych znajdujących się na skrzydłach samolotu (overwing exit). W incydencie ucierpiało 24 pasażerów, z czego troje zostało przewiezionych na obserwację do szpitala. Jak poinformowała lotniskowa straż pożarna, doszło także do niegroźnego wycieku paliwa.

Prawdopodobną przyczyną zdarzenia było oblodzenie drogi startowej. Choć według załogi Airbusa A319, która lądowała tuż przed samolotem Delty, warunki na pasie były dobre.

METAR (informacja pogodowa) z czasu wypadku:

KLGA 051640Z 32014KT 1/4SM R04/2400V4000FT SN FZFG SCT007 OVC012 M03/M05 A3015 RMK AO2 SFC VIS 1/2 PRESRR P0005
KLGA 051631Z 36009KT 1/4SM R04/3500VP6000FT SN FZFG VV012 M03/M05 A3012 RMK AO2SFC VIS 1/2 P0004
KLGA 051622Z 01008KT 1/4SM R04/3000VP6000FT SN FZFG VV011 M03/M05 A3012 RMK AO2SFC VIS 1/2 P0003
KLGA 051551Z 01008KT 1/4SM R04/2800V3500FT SN FZFG VV009 M03/M05 A3012 RMK AO2 SLP199 P0006 T10331050
KLGA 051524Z 04007KT 1/4SM R04/2600V2800FT SN FZFG VV009 M03/M04 A3013 RMK AO2 P0004
KLGA 051451Z 03010KT 1/4SM R04/3000V4500FT SN FZFG VV012 M03/M04 A3014 RMK AO2 TWR VIS 3/4 SLP207 P0003 60013 T10281044 53040

Tłumaczenie zaznaczonej informacji METAR:

Warunki na lotnisku: KLGA (Nowy Jork/LA GUARDIA,NY,USA) zaobserwowano 15:51 czasu UTC 5.3.2015
Temperatura: -3,3°C (26°F)
Punkt rosy: -5,0°C (23°F) [RH = 88%]
Ciśnienie (wysokościomierz): 30.12 cali Hg (1021 hPa)
Wiatry: z północy (10 stopni) 9 mil na godzinę (8 węzłów, 4,2 m/s)
Widoczność: 0,25 mil (0.40 km)
Chmury: zachmurzenie duże
Pogoda: SN FZFG (śnieg, zamarzająca mgła)

//www.pasazer.com/img/images/normal/delta,laguardia,media2.jpg
Port lotniczy LaGuardia, znajdujący się w nowojorskiej dzielnicy Queens, to lotnisko obsługujące kompleks miejski Nowego Jorku. Nazwa portu pochodzi od nazwiska dawnego burmistrza miasta - Fiorello LaGuardii.

LaGuardia jest trzecim co do wielkości przewozów pasażerskich portem lotniczym aglomeracji nowojorskiej (26,9 mln pasażerów w 2014), po portach im. Johna Kennedy'ego i Newark-Liberty. Wszystkie trzy lotniska obsługują ponad 115 mln pasażerów rocznie (dane za 2014), stanowiąc największy kompleks lotniczy USA. LaGuardia swoją popularność zawdzięcza usytuowaniu w centrum oraz tym, że znajduje się blisko Manhattanu. Loty z tego portu, to w większości rejsy krajowe po USA, do Kanady oraz sezonowe czartery do ciepłych krajów.

Fot. Veeestchic, Straż pożarna Nowego Jorku (FDNY)
Reklama

Ostatnie komentarze

gofi92 2015-03-06 01:58   
gofi92 - Profil gofi92
A sie wyglebał ! Dobrze że nie zatrzymał się w wodzie...
 - Profil
Kup bilet Więcej
Rezerwuj loty
dorośli
(od 18 lat)
młodzież
(12 - 18 lat)
dzieci
(2 - 12 lat)
niemowlęta
(do 2 lat)
Wypożycz samochód
Rezerwuj hotel
Wizy
Okazje z lotniska
Okazje pasażera
Reklama